createdAt,value
2019-01-17T00:00:54.840Z,99617.93
2019-01-17T00:04:04.507Z,99612.41
2019-01-17T00:07:32.414Z,99618.91
2019-01-17T00:10:56.761Z,99617.36
2019-01-17T00:13:37.333Z,99616.17
2019-01-17T00:16:48.694Z,99616.98
2019-01-17T00:19:52.010Z,99605.53
2019-01-17T00:23:11.490Z,99602.86
2019-01-17T00:26:04.977Z,99616.02
2019-01-17T00:29:16.126Z,99609.59
2019-01-17T00:32:27.522Z,99599.22
2019-01-17T00:35:19.446Z,99595.30
2019-01-17T00:38:04.845Z,99596.86
2019-01-17T00:41:33.736Z,99594.65
2019-01-17T00:44:47.837Z,99595.98
2019-01-17T00:47:56.565Z,99592.79
2019-01-17T00:50:48.776Z,99591.61
2019-01-17T00:53:57.439Z,99593.39
2019-01-17T00:56:52.893Z,99587.09
2019-01-17T01:00:17.061Z,99593.70
2019-01-17T01:03:08.108Z,99586.89
2019-01-17T01:06:19.464Z,99585.41
2019-01-17T01:09:23.951Z,99590.88
2019-01-17T01:12:20.708Z,99587.69
2019-01-17T01:15:11.186Z,99587.92
2019-01-17T01:17:57.180Z,99588.49
2019-01-17T01:20:49.501Z,99584.66
2019-01-17T01:24:02.083Z,99578.45
2019-01-17T01:27:00.412Z,99583.78
2019-01-17T01:29:51.361Z,99583.02
2019-01-17T01:33:09.312Z,99584.30
2019-01-17T01:36:18.074Z,99579.33
2019-01-17T01:39:23.055Z,99594.88
2019-01-17T01:42:36.704Z,99593.97
2019-01-17T01:45:20.024Z,99591.76
2019-01-17T01:48:25.323Z,99597.46
2019-01-17T01:51:17.494Z,99600.47
2019-01-17T01:53:52.406Z,99603.44
2019-01-17T01:56:35.003Z,99601.83
2019-01-17T01:59:17.914Z,99593.84
2019-01-17T02:01:52.119Z,99602.55
2019-01-17T02:04:35.009Z,99599.16
2019-01-17T02:07:18.543Z,99614.84
2019-01-17T02:09:52.150Z,99615.72
2019-01-17T02:12:25.245Z,99623.55
2019-01-17T02:14:58.677Z,99630.74
2019-01-17T02:17:32.715Z,99617.05
2019-01-17T02:20:08.035Z,99613.94
2019-01-17T02:22:41.663Z,99600.86
2019-01-17T02:25:14.797Z,99608.91
2019-01-17T02:27:48.579Z,99601.23
2019-01-17T02:30:28.574Z,99603.29
2019-01-17T02:33:02.441Z,99613.14
2019-01-17T02:35:35.014Z,99616.52
2019-01-17T02:38:16.962Z,99624.97
2019-01-17T02:40:50.174Z,99634.66
2019-01-17T02:43:23.604Z,99634.78
2019-01-17T02:46:06.137Z,99628.88
2019-01-17T02:48:48.665Z,99622.23
2019-01-17T02:51:22.217Z,99622.53
2019-01-17T02:53:56.203Z,99611.20
2019-01-17T02:56:33.006Z,99619.79
2019-01-17T02:59:06.876Z,99610.55
2019-01-17T03:01:54.739Z,99611.42
2019-01-17T03:04:27.889Z,99606.98
2019-01-17T03:07:01.315Z,99607.05
2019-01-17T03:09:44.080Z,99605.50
2019-01-17T03:12:29.787Z,99610.40
2019-01-17T03:15:04.191Z,99616.59
2019-01-17T03:17:37.748Z,99614.08
2019-01-17T03:20:13.174Z,99603.86
2019-01-17T03:22:56.881Z,99606.67
2019-01-17T03:25:41.876Z,99610.23
2019-01-17T03:28:24.170Z,99611.57
2019-01-17T03:31:07.510Z,99622.06
2019-01-17T03:33:40.960Z,99629.05
2019-01-17T03:36:14.429Z,99623.38
2019-01-17T03:38:47.883Z,99625.43
2019-01-17T03:41:22.390Z,99634.21
2019-01-17T03:43:56.547Z,99637.09
2019-01-17T03:46:39.387Z,99632.77
2019-01-17T03:49:21.755Z,99632.77
2019-01-17T03:52:04.265Z,99639.92
2019-01-17T03:54:38.189Z,99630.22
2019-01-17T03:57:21.400Z,99635.43
2019-01-17T04:00:05.753Z,99637.56
2019-01-17T04:02:51.333Z,99639.28
2019-01-17T04:05:33.382Z,99648.51
2019-01-17T04:08:06.835Z,99651.89
2019-01-17T04:10:40.838Z,99648.51
2019-01-17T04:13:15.938Z,99647.09
2019-01-17T04:15:49.319Z,99647.41
2019-01-17T04:18:23.223Z,99657.67
2019-01-17T04:20:56.961Z,99654.63
2019-01-17T04:23:31.159Z,99653.61
2019-01-17T04:26:13.218Z,99649.69
2019-01-17T04:28:46.758Z,99647.67
2019-01-17T04:31:19.926Z,99643.77
2019-01-17T04:33:59.411Z,99641.19
2019-01-17T04:36:42.195Z,99642.75
2019-01-17T04:39:24.884Z,99636.70
2019-01-17T04:42:07.012Z,99643.05
2019-01-17T04:44:40.746Z,99634.91
2019-01-17T04:47:14.597Z,99640.23
2019-01-17T04:49:48.126Z,99635.22
2019-01-17T04:52:21.282Z,99643.50
2019-01-17T04:54:54.776Z,99640.31
2019-01-17T04:57:28.245Z,99646.16
2019-01-17T05:00:01.359Z,99642.75
2019-01-17T05:02:43.744Z,99630.93
2019-01-17T05:05:16.794Z,99636.48
2019-01-17T05:07:51.560Z,99646.59
2019-01-17T05:10:33.798Z,99629.91
2019-01-17T05:13:07.490Z,99637.43
2019-01-17T05:15:42.329Z,99643.78
2019-01-17T05:18:16.700Z,99645.11
2019-01-17T05:20:58.989Z,99642.41
2019-01-17T05:23:32.533Z,99648.98
2019-01-17T05:26:05.780Z,99652.06
2019-01-17T05:28:39.660Z,99653.39
2019-01-17T05:31:13.524Z,99648.60
2019-01-17T05:33:48.068Z,99652.90
2019-01-17T05:36:21.521Z,99648.75
2019-01-17T05:39:07.128Z,99644.95
2019-01-17T05:41:41.476Z,99649.09
2019-01-17T05:44:14.566Z,99648.51
2019-01-17T05:46:56.733Z,99641.10
2019-01-17T05:49:30.236Z,99645.69
2019-01-17T05:52:05.424Z,99645.08
2019-01-17T05:54:39.243Z,99644.05
2019-01-17T05:57:13.124Z,99642.42
2019-01-17T05:59:46.589Z,99643.45
2019-01-17T06:02:21.039Z,99641.53
2019-01-17T06:04:54.624Z,99625.91
2019-01-17T06:07:29.237Z,99632.06
2019-01-17T06:10:01.887Z,99632.70
2019-01-17T06:12:35.062Z,99638.55
2019-01-17T06:15:20.479Z,99645.06
2019-01-17T06:17:55.387Z,99640.68
2019-01-17T06:20:29.392Z,99644.34
2019-01-17T06:23:03.126Z,99649.52
2019-01-17T06:25:36.539Z,99638.42
2019-01-17T06:28:09.752Z,99636.16
2019-01-17T06:30:42.857Z,99636.53
2019-01-17T06:33:15.607Z,99625.44
2019-01-17T06:35:49.201Z,99622.06
2019-01-17T06:38:23.956Z,99626.63
2019-01-17T06:40:57.404Z,99622.94
2019-01-17T06:43:39.920Z,99627.09
2019-01-17T06:46:24.481Z,99620.52
2019-01-17T06:49:07.094Z,99626.44
2019-01-17T06:51:40.523Z,99631.38
2019-01-17T06:54:13.745Z,99630.55
2019-01-17T06:56:47.295Z,99620.13
2019-01-17T06:59:20.106Z,99612.98
2019-01-17T07:01:54.199Z,99618.50
2019-01-17T07:04:36.767Z,99621.99
2019-01-17T07:07:19.117Z,99623.66
2019-01-17T07:09:53.059Z,99623.65
2019-01-17T07:12:35.848Z,99626.92
2019-01-17T07:15:18.326Z,99629.12
2019-01-17T07:17:51.609Z,99641.84
2019-01-17T07:20:25.557Z,99638.73
2019-01-17T07:22:58.958Z,99630.97
2019-01-17T07:25:32.602Z,99644.05
2019-01-17T07:28:06.607Z,99636.88
2019-01-17T07:30:40.934Z,99645.47
2019-01-17T07:33:15.072Z,99641.33
2019-01-17T07:35:49.005Z,99645.70
2019-01-17T07:38:31.618Z,99646.74
2019-01-17T07:41:05.756Z,99654.15
2019-01-17T07:43:53.662Z,99648.76
2019-01-17T07:46:36.574Z,99656.67
2019-01-17T07:49:20.115Z,99657.28
2019-01-17T07:52:02.758Z,99663.19
2019-01-17T07:54:47.643Z,99663.79
2019-01-17T07:57:32.850Z,99664.14
2019-01-17T08:00:08.510Z,99664.52
2019-01-17T08:02:51.128Z,99667.71
2019-01-17T08:05:24.283Z,99670.60
2019-01-17T08:07:58.124Z,99664.22
2019-01-17T08:10:31.591Z,99667.48
2019-01-17T08:13:05.498Z,99670.15
2019-01-17T08:15:39.026Z,99669.12
2019-01-17T08:18:18.518Z,99670.30
2019-01-17T08:20:47.102Z,99671.71
2019-01-17T08:23:20.244Z,99671.18
2019-01-17T08:25:54.351Z,99672.39
2019-01-17T08:28:27.991Z,99675.86
2019-01-17T08:31:01.487Z,99677.99
2019-01-17T08:33:34.980Z,99675.05
2019-01-17T08:36:20.196Z,99683.77
2019-01-17T08:38:54.273Z,99688.49
2019-01-17T08:41:40.111Z,99672.24
2019-01-17T08:44:22.952Z,99684.80
2019-01-17T08:47:06.036Z,99683.20
2019-01-17T08:49:48.580Z,99683.27
2019-01-17T08:52:36.226Z,99687.77
2019-01-17T08:55:09.503Z,99683.20
2019-01-17T08:57:43.411Z,99686.20
2019-01-17T09:00:18.614Z,99698.65
2019-01-17T09:02:52.791Z,99708.84
2019-01-17T09:05:26.932Z,99702.11
2019-01-17T09:08:09.018Z,99700.51
2019-01-17T09:10:42.198Z,99715.58
2019-01-17T09:13:15.665Z,99715.31
2019-01-17T09:15:49.512Z,99711.02
2019-01-17T09:18:23.861Z,99710.48
2019-01-17T09:21:06.269Z,99703.82
2019-01-17T09:23:39.512Z,99700.73
2019-01-17T09:26:14.062Z,99696.21
2019-01-17T09:28:55.874Z,99689.09
2019-01-17T09:31:29.057Z,99698.57
2019-01-17T09:34:02.593Z,99694.88
2019-01-17T09:36:36.080Z,99693.02
2019-01-17T09:39:18.295Z,99685.47
2019-01-17T09:41:51.792Z,99693.09
2019-01-17T09:44:25.257Z,99689.92
2019-01-17T09:46:59.087Z,99691.03
2019-01-17T09:49:32.314Z,99691.53
2019-01-17T09:52:05.953Z,99681.10
2019-01-17T09:54:39.461Z,99691.03
2019-01-17T09:57:12.942Z,99689.17
2019-01-17T09:59:46.053Z,99689.24
2019-01-17T10:02:27.915Z,99671.77
2019-01-17T10:05:01.704Z,99676.22
2019-01-17T10:07:35.325Z,99670.36
2019-01-17T10:10:11.115Z,99673.41
2019-01-17T10:12:53.851Z,99674.72
2019-01-17T10:16:17.211Z,99671.70
2019-01-17T10:19:26.938Z,99677.83
2019-01-17T10:23:01.647Z,99675.39
2019-01-17T10:26:00.199Z,99666.37
2019-01-17T10:28:58.236Z,99673.23
2019-01-17T10:32:36.059Z,99668.64
2019-01-17T10:35:35.496Z,99668.34
2019-01-17T10:38:53.645Z,99675.08
2019-01-17T10:41:54.884Z,99675.77
2019-01-17T10:45:12.647Z,99675.25
2019-01-17T10:48:26.194Z,99678.45
2019-01-17T10:51:55.718Z,99676.64
2019-01-17T10:55:11.813Z,99676.20
2019-01-17T10:58:23.401Z,99667.77
2019-01-17T11:01:42.850Z,99675.32
2019-01-17T11:04:52.374Z,99672.66
2019-01-17T11:07:58.614Z,99670.56
2019-01-17T11:11:07.430Z,99668.50
2019-01-17T11:13:59.773Z,99658.44
2019-01-17T11:16:58.741Z,99657.75
2019-01-17T11:20:00.813Z,99659.02
2019-01-17T11:23:10.409Z,99639.48
2019-01-17T11:26:12.557Z,99638.48
2019-01-17T11:29:24.226Z,99641.07
2019-01-17T11:32:42.654Z,99638.03
2019-01-17T11:35:48.251Z,99635.21
2019-01-17T11:39:03.528Z,99634.68
2019-01-17T11:42:23.854Z,99644.00
2019-01-17T11:45:20.112Z,99630.48
2019-01-17T11:48:41.910Z,99624.99
2019-01-17T11:51:47.319Z,99629.56
2019-01-17T11:54:53.321Z,99626.66
2019-01-17T11:58:25.839Z,99625.49
2019-01-17T12:01:48.061Z,99623.93
2019-01-17T12:04:30.836Z,99621.86
2019-01-17T12:07:10.044Z,99612.00
2019-01-17T12:09:44.393Z,99608.97
2019-01-17T12:12:22.459Z,99607.94
2019-01-17T12:14:58.571Z,99604.54
2019-01-17T12:17:31.730Z,99597.34
2019-01-17T12:20:06.052Z,99595.28
2019-01-17T12:22:50.345Z,99591.48
2019-01-17T12:25:33.402Z,99592.95
2019-01-17T12:28:16.533Z,99581.29
2019-01-17T12:30:49.748Z,99586.62
2019-01-17T12:33:23.852Z,99581.86
2019-01-17T12:35:57.897Z,99568.46
2019-01-17T12:38:31.301Z,99576.16
2019-01-17T12:41:04.727Z,99570.20
2019-01-17T12:43:37.895Z,99564.63
2019-01-17T12:46:20.363Z,99561.87
2019-01-17T12:49:03.870Z,99559.20
2019-01-17T12:51:36.998Z,99560.27
2019-01-17T12:54:19.788Z,99549.44
2019-01-17T12:56:54.160Z,99555.67
2019-01-17T12:59:28.182Z,99547.71
2019-01-17T13:02:01.984Z,99549.24
2019-01-17T13:04:47.675Z,99547.31
2019-01-17T13:07:31.330Z,99550.77
2019-01-17T13:10:14.380Z,99545.68
2019-01-17T13:12:57.493Z,99553.91
2019-01-17T13:15:40.424Z,99562.30
2019-01-17T13:18:13.510Z,99592.67
2019-01-17T13:20:46.741Z,99627.53
2019-01-17T13:23:20.901Z,99631.21
2019-01-17T13:25:54.164Z,99631.89
2019-01-17T13:28:27.229Z,99628.44
2019-01-17T13:31:09.676Z,99612.89
2019-01-17T13:33:42.761Z,99619.51
2019-01-17T13:36:16.265Z,99618.48
2019-01-17T13:38:48.090Z,99616.85
2019-01-17T13:41:22.058Z,99617.72
2019-01-17T13:43:56.451Z,99619.11
2019-01-17T13:46:38.787Z,99622.13
2019-01-17T13:49:12.416Z,99625.72
2019-01-17T13:51:45.854Z,99633.98
2019-01-17T13:54:19.543Z,99624.78
2019-01-17T13:56:53.046Z,99629.88
2019-01-17T13:59:27.538Z,99636.48
2019-01-17T14:02:16.163Z,99634.50
2019-01-17T14:04:57.860Z,99626.98
2019-01-17T14:07:30.991Z,99638.36
2019-01-17T14:10:03.781Z,99642.34
2019-01-17T14:12:36.949Z,99648.80
2019-01-17T14:15:13.853Z,99646.95
2019-01-17T14:17:47.049Z,99655.93
2019-01-17T14:20:20.718Z,99655.41
2019-01-17T14:22:54.037Z,99656.77
2019-01-17T14:25:37.383Z,99659.91
2019-01-17T14:28:19.717Z,99655.93
2019-01-17T14:30:53.018Z,99662.97
2019-01-17T14:33:26.916Z,99669.52
2019-01-17T14:36:00.038Z,99671.25
2019-01-17T14:38:33.130Z,99673.48
2019-01-17T14:41:15.759Z,99681.63
2019-01-17T14:43:59.320Z,99684.59
2019-01-17T14:46:42.250Z,99691.23
2019-01-17T14:49:15.384Z,99694.85
2019-01-17T14:51:48.818Z,99701.80
2019-01-17T14:54:21.935Z,99703.66
2019-01-17T14:57:05.267Z,99711.06
2019-01-17T14:59:38.727Z,99708.94
2019-01-17T15:02:11.821Z,99714.38
2019-01-17T15:04:45.816Z,99711.25
2019-01-17T15:07:19.367Z,99719.00
2019-01-17T15:09:53.114Z,99724.31
2019-01-17T15:12:26.713Z,99732.07
2019-01-17T15:15:01.056Z,99731.77
2019-01-17T15:17:43.125Z,99727.03
2019-01-17T15:20:18.433Z,99740.72
2019-01-17T15:22:52.508Z,99737.45
2019-01-17T15:25:26.310Z,99747.33
2019-01-17T15:28:09.472Z,99745.51
2019-01-17T15:30:42.286Z,99745.94
2019-01-17T15:33:16.027Z,99752.00
2019-01-17T15:35:49.139Z,99759.05
2019-01-17T15:38:22.471Z,99763.16
2019-01-17T15:40:55.849Z,99765.50
2019-01-17T15:43:37.956Z,99776.62
2019-01-17T15:46:11.050Z,99777.86
2019-01-17T15:48:45.233Z,99775.73
2019-01-17T15:51:18.819Z,99778.41
2019-01-17T15:53:53.288Z,99785.98
2019-01-17T15:56:27.428Z,99792.63
2019-01-17T15:59:01.959Z,99789.55
2019-01-17T16:01:35.905Z,99800.59
2019-01-17T16:04:09.312Z,99807.94
2019-01-17T16:06:42.416Z,99807.94
2019-01-17T16:09:26.712Z,99803.95
2019-01-17T16:12:10.427Z,99801.61
2019-01-17T16:14:44.208Z,99809.38
2019-01-17T16:17:27.688Z,99817.86
2019-01-17T16:20:11.763Z,99813.25
2019-01-17T16:22:44.642Z,99818.25
2019-01-17T16:25:19.963Z,99821.75
2019-01-17T16:27:53.757Z,99826.86
2019-01-17T16:30:32.499Z,99832.98
2019-01-17T16:33:05.575Z,99839.72
2019-01-17T16:35:38.962Z,99845.75
2019-01-17T16:38:12.959Z,99845.24
2019-01-17T16:40:46.278Z,99847.00
2019-01-17T16:43:30.601Z,99843.72
2019-01-17T16:46:03.714Z,99850.27
2019-01-17T16:48:46.487Z,99858.14
2019-01-17T16:51:29.073Z,99855.18
2019-01-17T16:54:02.877Z,99863.95
2019-01-17T16:56:45.670Z,99866.41
2019-01-17T16:59:28.514Z,99869.69
2019-01-17T17:02:10.788Z,99874.48
2019-01-17T17:04:43.885Z,99880.73
2019-01-17T17:07:17.014Z,99892.84
2019-01-17T17:09:59.912Z,99899.91
2019-01-17T17:12:33.436Z,99897.36
2019-01-17T17:15:08.039Z,99901.51
2019-01-17T17:17:51.180Z,99901.22
2019-01-17T17:20:25.055Z,99912.64
2019-01-17T17:22:58.192Z,99905.25
2019-01-17T17:25:31.625Z,99936.92
2019-01-17T17:28:05.413Z,99944.28
2019-01-17T17:30:39.060Z,99942.05
2019-01-17T17:33:17.545Z,99937.33
2019-01-17T17:35:52.400Z,99950.81
2019-01-17T17:38:25.763Z,99957.27
2019-01-17T17:40:59.423Z,99961.77
2019-01-17T17:43:32.856Z,99962.44
2019-01-17T17:46:06.387Z,99964.63
2019-01-17T17:48:48.791Z,99968.97
2019-01-17T17:51:32.206Z,99958.83
2019-01-17T17:54:15.240Z,99979.27
2019-01-17T17:56:48.378Z,99983.81
2019-01-17T17:59:21.969Z,99986.78
2019-01-17T18:02:00.960Z,99986.88
2019-01-17T18:04:34.714Z,99996.59
2019-01-17T18:07:08.876Z,99993.17
2019-01-17T18:09:42.383Z,99990.93
2019-01-17T18:12:16.000Z,99991.13
2019-01-17T18:14:49.650Z,99993.58
2019-01-17T18:17:22.416Z,100011.78
2019-01-17T18:19:55.560Z,100008.72
2019-01-17T18:22:28.943Z,100014.71
2019-01-17T18:25:02.167Z,100012.14
2019-01-17T18:27:47.491Z,100012.42
2019-01-17T18:30:29.401Z,100019.97
2019-01-17T18:33:05.506Z,100027.27
2019-01-17T18:35:47.504Z,100040.12
2019-01-17T18:38:21.953Z,100043.84
2019-01-17T18:41:05.336Z,100044.66
2019-01-17T18:43:38.450Z,100058.30
2019-01-17T18:46:21.945Z,100058.80
2019-01-17T18:49:05.989Z,100057.69
2019-01-17T18:51:48.386Z,100060.28
2019-01-17T18:54:34.373Z,100059.08
2019-01-17T18:57:16.846Z,100059.41
2019-01-17T18:59:50.509Z,100063.89
2019-01-17T19:02:40.032Z,100070.49
2019-01-17T19:05:13.788Z,100075.95
2019-01-17T19:07:47.546Z,100075.72
2019-01-17T19:10:21.543Z,100085.64
2019-01-17T19:13:05.471Z,100083.55
2019-01-17T19:15:39.313Z,100095.84
2019-01-17T19:18:12.442Z,100094.39
2019-01-17T19:20:45.911Z,100100.91
2019-01-17T19:23:19.334Z,100111.30
2019-01-17T19:25:53.520Z,100110.89
2019-01-17T19:28:27.015Z,100124.38
2019-01-17T19:30:59.607Z,100120.17
2019-01-17T19:33:34.187Z,100112.98
2019-01-17T19:36:07.286Z,100113.41
2019-01-17T19:38:40.700Z,100119.91
2019-01-17T19:41:28.837Z,100118.64
2019-01-17T19:44:02.064Z,100122.83
2019-01-17T19:46:35.875Z,100127.73
2019-01-17T19:49:08.984Z,100136.34
2019-01-17T19:51:42.468Z,100141.51
2019-01-17T19:54:15.581Z,100147.09
2019-01-17T19:56:58.371Z,100161.92
2019-01-17T19:59:41.265Z,100161.64
2019-01-17T20:02:33.628Z,100166.94
2019-01-17T20:05:08.159Z,100169.07
2019-01-17T20:07:41.650Z,100185.97
2019-01-17T20:10:17.523Z,100191.55
2019-01-17T20:12:51.040Z,100196.04
2019-01-17T20:15:24.840Z,100194.39
2019-01-17T20:17:58.654Z,100200.34
2019-01-17T20:20:33.756Z,100209.66
2019-01-17T20:23:16.472Z,100214.58
2019-01-17T20:25:50.882Z,100229.20
2019-01-17T20:28:24.331Z,100220.07
2019-01-17T20:30:58.055Z,100228.15
2019-01-17T20:33:40.123Z,100226.09
2019-01-17T20:36:23.377Z,100228.90
2019-01-17T20:39:08.231Z,100223.44
2019-01-17T20:41:41.779Z,100229.03
2019-01-17T20:44:15.603Z,100240.22
2019-01-17T20:46:49.114Z,100243.19
2019-01-17T20:49:22.841Z,100258.77
2019-01-17T20:51:56.477Z,100254.52
2019-01-17T20:54:29.563Z,100256.50
2019-01-17T20:57:03.136Z,100259.50
2019-01-17T20:59:49.475Z,100265.71
2019-01-17T21:02:22.515Z,100266.03
2019-01-17T21:05:04.899Z,100293.09
2019-01-17T21:07:47.803Z,100289.50
2019-01-17T21:10:22.364Z,100297.42
2019-01-17T21:12:57.079Z,100310.88
2019-01-17T21:15:39.846Z,100341.73
2019-01-17T21:18:12.950Z,100345.56
2019-01-17T21:20:57.609Z,100370.40
2019-01-17T21:23:31.296Z,100373.66
2019-01-17T21:26:04.933Z,100394.13
2019-01-17T21:28:38.651Z,100392.80
2019-01-17T21:31:16.542Z,100407.03
2019-01-17T21:33:50.103Z,100420.55
2019-01-17T21:36:33.115Z,100429.11
2019-01-17T21:39:08.522Z,100443.45
2019-01-17T21:41:42.385Z,100453.42
2019-01-17T21:44:15.836Z,100467.68
2019-01-17T21:46:49.554Z,100476.25
2019-01-17T21:49:35.183Z,100488.19
2019-01-17T21:52:08.475Z,100501.48
2019-01-17T21:54:51.154Z,100509.69
2019-01-17T21:57:35.039Z,100517.02
2019-01-17T22:00:13.209Z,100530.66
2019-01-17T22:02:57.037Z,100548.52
2019-01-17T22:05:30.155Z,100553.16
2019-01-17T22:08:04.882Z,100563.74
2019-01-17T22:10:46.982Z,100573.64
2019-01-17T22:13:20.175Z,100584.58
2019-01-17T22:15:54.535Z,100605.41
2019-01-17T22:18:38.382Z,100604.09
2019-01-17T22:21:12.715Z,100613.73
2019-01-17T22:23:47.068Z,100618.19
2019-01-17T22:26:21.077Z,100636.70
2019-01-17T22:28:55.425Z,100648.44
2019-01-17T22:31:29.382Z,100658.84
2019-01-17T22:34:02.518Z,100665.47
2019-01-17T22:36:36.481Z,100669.41
2019-01-17T22:39:19.304Z,100674.23
2019-01-17T22:41:52.680Z,100681.00
2019-01-17T22:44:26.530Z,100683.80
2019-01-17T22:46:59.978Z,100697.67
2019-01-17T22:49:33.818Z,100701.64
2019-01-17T22:52:06.899Z,100701.31
2019-01-17T22:54:40.869Z,100710.25
2019-01-17T22:57:14.207Z,100722.48
2019-01-17T22:59:47.478Z,100726.11
2019-01-17T23:02:20.876Z,100730.42
2019-01-17T23:04:54.002Z,100735.71
2019-01-17T23:07:37.590Z,100738.82
2019-01-17T23:10:10.740Z,100751.87
2019-01-17T23:12:52.943Z,100745.61
2019-01-17T23:15:26.154Z,100760.97
2019-01-17T23:17:59.877Z,100772.73
2019-01-17T23:20:33.451Z,100772.06
2019-01-17T23:23:06.880Z,100775.19
2019-01-17T23:25:41.111Z,100783.45
2019-01-17T23:28:14.575Z,100787.59
2019-01-17T23:30:57.236Z,100787.90
2019-01-17T23:33:40.795Z,100798.31
2019-01-17T23:36:22.710Z,100800.81
2019-01-17T23:38:56.222Z,100805.25
2019-01-17T23:41:41.417Z,100812.71
2019-01-17T23:44:24.235Z,100815.66
2019-01-17T23:46:58.373Z,100825.07
2019-01-17T23:49:32.281Z,100828.20
2019-01-17T23:52:05.859Z,100829.85
2019-01-17T23:54:39.937Z,100832.66
2019-01-17T23:57:11.844Z,100838.77
2019-01-17T23:59:45.703Z,100843.06
